sensor_id;sensor_type;location;lat;lon;timestamp;P1;durP1;ratioP1;P2;durP2;ratioP2
10063;SDS011;5071;52.360;13.134;2022-07-15T00:03:25;2.20;;;0.90;;
10063;SDS011;5071;52.360;13.134;2022-07-15T00:08:28;1.80;;;0.70;;
10063;SDS011;5071;52.360;13.134;2022-07-15T00:13:31;2.07;;;0.80;;
10063;SDS011;5071;52.360;13.134;2022-07-15T00:18:33;0.80;;;0.53;;
10063;SDS011;5071;52.360;13.134;2022-07-15T00:23:35;0.87;;;0.87;;
10063;SDS011;5071;52.360;13.134;2022-07-15T00:28:39;1.50;;;0.80;;
10063;SDS011;5071;52.360;13.134;2022-07-15T00:33:41;1.37;;;0.60;;
10063;SDS011;5071;52.360;13.134;2022-07-15T00:38:43;1.77;;;0.87;;
10063;SDS011;5071;52.360;13.134;2022-07-15T00:43:46;3.47;;;1.00;;
10063;SDS011;5071;52.360;13.134;2022-07-15T00:48:48;1.63;;;0.80;;
10063;SDS011;5071;52.360;13.134;2022-07-15T00:53:51;2.07;;;0.70;;
10063;SDS011;5071;52.360;13.134;2022-07-15T00:58:57;1.33;;;0.90;;
10063;SDS011;5071;52.360;13.134;2022-07-15T01:04:02;1.07;;;0.73;;
10063;SDS011;5071;52.360;13.134;2022-07-15T01:09:05;2.20;;;0.83;;
10063;SDS011;5071;52.360;13.134;2022-07-15T01:14:09;1.33;;;0.67;;
10063;SDS011;5071;52.360;13.134;2022-07-15T01:19:11;2.70;;;1.00;;
10063;SDS011;5071;52.360;13.134;2022-07-15T01:24:15;7.63;;;1.20;;
10063;SDS011;5071;52.360;13.134;2022-07-15T01:29:17;2.57;;;0.80;;
10063;SDS011;5071;52.360;13.134;2022-07-15T01:34:20;2.73;;;1.00;;
10063;SDS011;5071;52.360;13.134;2022-07-15T01:39:24;1.37;;;0.80;;
10063;SDS011;5071;52.360;13.134;2022-07-15T01:44:39;3.30;;;0.80;;
10063;SDS011;5071;52.360;13.134;2022-07-15T01:49:41;2.83;;;1.00;;
10063;SDS011;5071;52.360;13.134;2022-07-15T01:54:44;4.43;;;1.37;;
10063;SDS011;5071;52.360;13.134;2022-07-15T01:59:46;3.17;;;1.00;;
10063;SDS011;5071;52.360;13.134;2022-07-15T02:04:48;5.80;;;0.90;;
10063;SDS011;5071;52.360;13.134;2022-07-15T02:09:52;1.73;;;0.70;;
10063;SDS011;5071;52.360;13.134;2022-07-15T02:14:54;1.73;;;0.93;;
10063;SDS011;5071;52.360;13.134;2022-07-15T02:19:56;4.33;;;1.10;;
10063;SDS011;5071;52.360;13.134;2022-07-15T02:25:00;2.27;;;0.97;;
10063;SDS011;5071;52.360;13.134;2022-07-15T02:30:01;4.47;;;1.30;;
10063;SDS011;5071;52.360;13.134;2022-07-15T02:35:04;2.60;;;1.03;;
10063;SDS011;5071;52.360;13.134;2022-07-15T02:40:09;3.27;;;1.03;;
10063;SDS011;5071;52.360;13.134;2022-07-15T02:45:12;2.13;;;0.97;;
10063;SDS011;5071;52.360;13.134;2022-07-15T02:50:15;2.80;;;1.00;;
10063;SDS011;5071;52.360;13.134;2022-07-15T02:55:19;3.90;;;1.63;;
10063;SDS011;5071;52.360;13.134;2022-07-15T03:00:21;1.97;;;1.00;;
10063;SDS011;5071;52.360;13.134;2022-07-15T03:05:23;6.43;;;1.07;;
10063;SDS011;5071;52.360;13.134;2022-07-15T03:10:27;4.33;;;1.10;;
10063;SDS011;5071;52.360;13.134;2022-07-15T03:15:29;5.17;;;1.10;;
10063;SDS011;5071;52.360;13.134;2022-07-15T03:20:31;3.20;;;0.90;;
10063;SDS011;5071;52.360;13.134;2022-07-15T03:25:35;4.47;;;1.10;;
10063;SDS011;5071;52.360;13.134;2022-07-15T03:30:37;3.87;;;0.90;;
10063;SDS011;5071;52.360;13.134;2022-07-15T03:35:39;5.90;;;1.43;;
10063;SDS011;5071;52.360;13.134;2022-07-15T03:40:43;4.67;;;1.20;;
10063;SDS011;5071;52.360;13.134;2022-07-15T03:45:45;4.33;;;1.00;;
10063;SDS011;5071;52.360;13.134;2022-07-15T03:50:48;3.33;;;0.97;;
10063;SDS011;5071;52.360;13.134;2022-07-15T03:55:51;4.20;;;0.87;;
10063;SDS011;5071;52.360;13.134;2022-07-15T04:00:53;4.80;;;1.00;;
10063;SDS011;5071;52.360;13.134;2022-07-15T04:05:55;3.77;;;1.13;;
10063;SDS011;5071;52.360;13.134;2022-07-15T04:10:59;5.67;;;1.10;;
10063;SDS011;5071;52.360;13.134;2022-07-15T04:16:01;5.40;;;1.30;;
10063;SDS011;5071;52.360;13.134;2022-07-15T04:21:03;4.27;;;1.17;;
10063;SDS011;5071;52.360;13.134;2022-07-15T04:26:07;10.17;;;1.10;;
10063;SDS011;5071;52.360;13.134;2022-07-15T04:31:09;6.70;;;1.00;;
10063;SDS011;5071;52.360;13.134;2022-07-15T04:36:12;3.30;;;1.27;;
10063;SDS011;5071;52.360;13.134;2022-07-15T04:41:16;2.87;;;1.10;;
10063;SDS011;5071;52.360;13.134;2022-07-15T04:46:18;1.33;;;0.77;;
10063;SDS011;5071;52.360;13.134;2022-07-15T04:51:21;3.53;;;0.80;;
10063;SDS011;5071;52.360;13.134;2022-07-15T04:56:24;2.40;;;1.03;;
10063;SDS011;5071;52.360;13.134;2022-07-15T05:01:25;2.77;;;1.07;;
10063;SDS011;5071;52.360;13.134;2022-07-15T05:06:31;3.37;;;1.00;;
10063;SDS011;5071;52.360;13.134;2022-07-15T05:11:35;3.90;;;1.10;;
10063;SDS011;5071;52.360;13.134;2022-07-15T05:16:37;7.90;;;1.80;;
10063;SDS011;5071;52.360;13.134;2022-07-15T05:21:39;3.30;;;1.10;;
10063;SDS011;5071;52.360;13.134;2022-07-15T05:26:42;3.83;;;1.10;;
10063;SDS011;5071;52.360;13.134;2022-07-15T05:31:46;6.07;;;1.00;;
10063;SDS011;5071;52.360;13.134;2022-07-15T05:36:47;6.07;;;1.43;;
10063;SDS011;5071;52.360;13.134;2022-07-15T05:41:51;6.83;;;1.27;;
10063;SDS011;5071;52.360;13.134;2022-07-15T05:46:53;3.23;;;1.50;;
10063;SDS011;5071;52.360;13.134;2022-07-15T05:51:55;2.43;;;1.00;;
10063;SDS011;5071;52.360;13.134;2022-07-15T05:56:58;1.00;;;1.00;;
10063;SDS011;5071;52.360;13.134;2022-07-15T06:02:00;2.23;;;0.87;;
10063;SDS011;5071;52.360;13.134;2022-07-15T06:07:02;4.30;;;0.80;;
10063;SDS011;5071;52.360;13.134;2022-07-15T06:12:06;4.50;;;1.10;;
10063;SDS011;5071;52.360;13.134;2022-07-15T06:17:09;3.43;;;0.90;;
10063;SDS011;5071;52.360;13.134;2022-07-15T06:22:10;3.60;;;0.80;;
10063;SDS011;5071;52.360;13.134;2022-07-15T06:27:14;2.80;;;0.90;;
10063;SDS011;5071;52.360;13.134;2022-07-15T06:32:16;2.50;;;0.70;;
10063;SDS011;5071;52.360;13.134;2022-07-15T06:37:19;1.40;;;0.80;;
10063;SDS011;5071;52.360;13.134;2022-07-15T06:42:22;4.40;;;1.27;;
10063;SDS011;5071;52.360;13.134;2022-07-15T06:47:25;3.03;;;0.60;;
10063;SDS011;5071;52.360;13.134;2022-07-15T06:52:27;4.87;;;0.80;;
10063;SDS011;5071;52.360;13.134;2022-07-15T06:57:30;2.23;;;0.70;;
10063;SDS011;5071;52.360;13.134;2022-07-15T07:02:33;3.17;;;0.80;;
10063;SDS011;5071;52.360;13.134;2022-07-15T07:07:35;3.00;;;0.60;;
10063;SDS011;5071;52.360;13.134;2022-07-15T07:12:38;3.67;;;0.50;;
10063;SDS011;5071;52.360;13.134;2022-07-15T07:17:40;1.27;;;0.90;;
10063;SDS011;5071;52.360;13.134;2022-07-15T07:22:42;1.93;;;0.77;;
10063;SDS011;5071;52.360;13.134;2022-07-15T07:27:46;6.07;;;0.90;;
10063;SDS011;5071;52.360;13.134;2022-07-15T07:32:48;4.07;;;0.90;;
10063;SDS011;5071;52.360;13.134;2022-07-15T07:37:50;2.00;;;0.67;;
10063;SDS011;5071;52.360;13.134;2022-07-15T07:42:53;2.20;;;0.60;;
10063;SDS011;5071;52.360;13.134;2022-07-15T07:47:55;2.37;;;0.70;;
10063;SDS011;5071;52.360;13.134;2022-07-15T07:52:57;2.13;;;0.60;;
10063;SDS011;5071;52.360;13.134;2022-07-15T07:58:02;1.30;;;0.60;;
10063;SDS011;5071;52.360;13.134;2022-07-15T08:03:04;2.13;;;0.50;;
10063;SDS011;5071;52.360;13.134;2022-07-15T08:08:09;1.50;;;0.60;;
10063;SDS011;5071;52.360;13.134;2022-07-15T08:13:14;2.27;;;0.80;;
10063;SDS011;5071;52.360;13.134;2022-07-15T08:18:17;1.80;;;0.37;;
10063;SDS011;5071;52.360;13.134;2022-07-15T08:23:19;1.17;;;0.50;;
10063;SDS011;5071;52.360;13.134;2022-07-15T08:28:25;3.70;;;0.67;;
10063;SDS011;5071;52.360;13.134;2022-07-15T08:33:47;2.53;;;0.47;;
10063;SDS011;5071;52.360;13.134;2022-07-15T08:38:49;1.10;;;0.43;;
10063;SDS011;5071;52.360;13.134;2022-07-15T08:43:53;3.37;;;0.83;;
10063;SDS011;5071;52.360;13.134;2022-07-15T08:48:57;1.73;;;0.40;;
10063;SDS011;5071;52.360;13.134;2022-07-15T08:54:05;3.70;;;0.67;;
10063;SDS011;5071;52.360;13.134;2022-07-15T08:59:09;1.30;;;0.80;;
10063;SDS011;5071;52.360;13.134;2022-07-15T09:04:11;2.77;;;0.70;;
10063;SDS011;5071;52.360;13.134;2022-07-15T09:09:23;1.10;;;0.50;;
10063;SDS011;5071;52.360;13.134;2022-07-15T09:14:30;1.17;;;0.50;;
10063;SDS011;5071;52.360;13.134;2022-07-15T09:25:04;5.70;;;1.07;;
10063;SDS011;5071;52.360;13.134;2022-07-15T09:30:19;1.50;;;0.53;;
10063;SDS011;5071;52.360;13.134;2022-07-15T09:35:23;3.67;;;0.47;;
10063;SDS011;5071;52.360;13.134;2022-07-15T09:40:29;1.53;;;0.70;;
10063;SDS011;5071;52.360;13.134;2022-07-15T09:45:33;3.33;;;0.70;;
10063;SDS011;5071;52.360;13.134;2022-07-15T09:50:35;2.73;;;0.47;;
10063;SDS011;5071;52.360;13.134;2022-07-15T09:55:38;3.60;;;0.70;;
10063;SDS011;5071;52.360;13.134;2022-07-15T10:00:43;1.50;;;0.63;;
10063;SDS011;5071;52.360;13.134;2022-07-15T10:05:45;2.43;;;1.03;;
10063;SDS011;5071;52.360;13.134;2022-07-15T10:10:50;0.47;;;0.30;;
10063;SDS011;5071;52.360;13.134;2022-07-15T10:15:54;1.63;;;0.40;;
10063;SDS011;5071;52.360;13.134;2022-07-15T10:21:08;1.40;;;0.40;;
10063;SDS011;5071;52.360;13.134;2022-07-15T10:26:25;0.97;;;0.40;;
10063;SDS011;5071;52.360;13.134;2022-07-15T10:31:40;2.10;;;0.50;;
10063;SDS011;5071;52.360;13.134;2022-07-15T10:36:53;1.03;;;0.70;;
10063;SDS011;5071;52.360;13.134;2022-07-15T10:42:07;8.23;;;0.80;;
10063;SDS011;5071;52.360;13.134;2022-07-15T10:47:19;2.07;;;0.73;;
10063;SDS011;5071;52.360;13.134;2022-07-15T10:52:22;3.03;;;0.63;;
10063;SDS011;5071;52.360;13.134;2022-07-15T11:03:02;1.77;;;0.40;;
10063;SDS011;5071;52.360;13.134;2022-07-15T11:13:48;1.33;;;0.60;;
10063;SDS011;5071;52.360;13.134;2022-07-15T11:18:54;0.70;;;0.30;;
10063;SDS011;5071;52.360;13.134;2022-07-15T11:23:57;1.30;;;0.40;;
10063;SDS011;5071;52.360;13.134;2022-07-15T11:29:01;1.07;;;0.50;;
10063;SDS011;5071;52.360;13.134;2022-07-15T11:34:05;4.47;;;0.60;;
10063;SDS011;5071;52.360;13.134;2022-07-15T11:39:07;1.53;;;0.73;;
10063;SDS011;5071;52.360;13.134;2022-07-15T11:44:10;4.87;;;0.57;;
10063;SDS011;5071;52.360;13.134;2022-07-15T11:49:25;3.37;;;0.60;;
10063;SDS011;5071;52.360;13.134;2022-07-15T11:54:28;2.13;;;0.40;;
10063;SDS011;5071;52.360;13.134;2022-07-15T11:59:30;5.37;;;0.70;;
10063;SDS011;5071;52.360;13.134;2022-07-15T12:04:33;3.37;;;0.53;;
10063;SDS011;5071;52.360;13.134;2022-07-15T12:09:39;1.10;;;0.50;;
10063;SDS011;5071;52.360;13.134;2022-07-15T12:14:41;1.20;;;0.50;;
10063;SDS011;5071;52.360;13.134;2022-07-15T12:19:51;4.47;;;0.60;;
10063;SDS011;5071;52.360;13.134;2022-07-15T12:24:53;1.10;;;0.40;;
10063;SDS011;5071;52.360;13.134;2022-07-15T12:29:59;0.60;;;0.60;;
10063;SDS011;5071;52.360;13.134;2022-07-15T12:35:12;2.30;;;0.70;;
10063;SDS011;5071;52.360;13.134;2022-07-15T12:40:20;1.47;;;0.50;;
10063;SDS011;5071;52.360;13.134;2022-07-15T12:45:25;2.40;;;0.70;;
10063;SDS011;5071;52.360;13.134;2022-07-15T12:50:31;3.13;;;0.80;;
10063;SDS011;5071;52.360;13.134;2022-07-15T12:55:40;2.33;;;0.70;;
10063;SDS011;5071;52.360;13.134;2022-07-15T13:00:43;1.50;;;0.60;;
10063;SDS011;5071;52.360;13.134;2022-07-15T13:05:48;1.23;;;0.60;;
10063;SDS011;5071;52.360;13.134;2022-07-15T13:10:52;2.07;;;0.87;;
10063;SDS011;5071;52.360;13.134;2022-07-15T13:15:55;0.93;;;0.37;;
10063;SDS011;5071;52.360;13.134;2022-07-15T13:20:59;4.23;;;0.70;;
10063;SDS011;5071;52.360;13.134;2022-07-15T13:26:02;2.23;;;0.50;;
10063;SDS011;5071;52.360;13.134;2022-07-15T13:31:03;2.92;;;0.75;;
10063;SDS011;5071;52.360;13.134;2022-07-15T13:36:08;1.80;;;0.40;;
10063;SDS011;5071;52.360;13.134;2022-07-15T13:41:10;1.67;;;0.57;;
10063;SDS011;5071;52.360;13.134;2022-07-15T13:46:12;3.93;;;0.97;;
10063;SDS011;5071;52.360;13.134;2022-07-15T13:51:16;1.43;;;0.60;;
10063;SDS011;5071;52.360;13.134;2022-07-15T13:56:18;2.13;;;0.40;;
10063;SDS011;5071;52.360;13.134;2022-07-15T14:01:20;2.70;;;0.50;;
10063;SDS011;5071;52.360;13.134;2022-07-15T14:06:24;2.07;;;0.50;;
10063;SDS011;5071;52.360;13.134;2022-07-15T14:11:26;2.70;;;0.70;;
10063;SDS011;5071;52.360;13.134;2022-07-15T14:16:28;1.73;;;0.70;;
10063;SDS011;5071;52.360;13.134;2022-07-15T14:21:32;1.20;;;0.50;;
10063;SDS011;5071;52.360;13.134;2022-07-15T14:26:42;1.53;;;0.60;;
10063;SDS011;5071;52.360;13.134;2022-07-15T14:31:44;0.63;;;0.60;;
10063;SDS011;5071;52.360;13.134;2022-07-15T14:36:48;1.17;;;0.50;;
10063;SDS011;5071;52.360;13.134;2022-07-15T14:42:10;3.17;;;0.97;;
10063;SDS011;5071;52.360;13.134;2022-07-15T14:47:13;5.17;;;0.90;;
10063;SDS011;5071;52.360;13.134;2022-07-15T14:52:16;2.13;;;0.57;;
10063;SDS011;5071;52.360;13.134;2022-07-15T14:57:18;5.40;;;0.90;;
10063;SDS011;5071;52.360;13.134;2022-07-15T15:02:20;1.03;;;0.70;;
10063;SDS011;5071;52.360;13.134;2022-07-15T15:07:24;0.93;;;0.50;;
10063;SDS011;5071;52.360;13.134;2022-07-15T15:12:26;1.27;;;0.60;;
10063;SDS011;5071;52.360;13.134;2022-07-15T15:17:28;3.10;;;0.50;;
10063;SDS011;5071;52.360;13.134;2022-07-15T15:22:38;3.60;;;0.70;;
10063;SDS011;5071;52.360;13.134;2022-07-15T15:27:41;0.93;;;0.70;;
10063;SDS011;5071;52.360;13.134;2022-07-15T15:32:43;2.53;;;0.80;;
10063;SDS011;5071;52.360;13.134;2022-07-15T15:37:46;1.97;;;0.40;;
10063;SDS011;5071;52.360;13.134;2022-07-15T15:42:48;1.13;;;0.70;;
10063;SDS011;5071;52.360;13.134;2022-07-15T15:47:51;1.83;;;1.07;;
10063;SDS011;5071;52.360;13.134;2022-07-15T15:52:54;0.60;;;0.37;;
10063;SDS011;5071;52.360;13.134;2022-07-15T15:57:56;0.67;;;0.37;;
10063;SDS011;5071;52.360;13.134;2022-07-15T16:03:18;1.03;;;0.50;;
10063;SDS011;5071;52.360;13.134;2022-07-15T16:08:21;1.03;;;0.50;;
10063;SDS011;5071;52.360;13.134;2022-07-15T16:13:23;1.47;;;0.87;;
10063;SDS011;5071;52.360;13.134;2022-07-15T16:18:25;2.67;;;1.03;;
10063;SDS011;5071;52.360;13.134;2022-07-15T16:23:29;1.27;;;0.60;;
10063;SDS011;5071;52.360;13.134;2022-07-15T16:28:31;1.80;;;0.50;;
10063;SDS011;5071;52.360;13.134;2022-07-15T16:33:33;0.63;;;0.40;;
10063;SDS011;5071;52.360;13.134;2022-07-15T16:38:37;2.63;;;1.00;;
10063;SDS011;5071;52.360;13.134;2022-07-15T16:43:39;2.03;;;0.57;;
10063;SDS011;5071;52.360;13.134;2022-07-15T16:48:41;1.30;;;0.80;;
10063;SDS011;5071;52.360;13.134;2022-07-15T16:53:44;1.87;;;0.40;;
10063;SDS011;5071;52.360;13.134;2022-07-15T16:58:46;0.47;;;0.40;;
10063;SDS011;5071;52.360;13.134;2022-07-15T17:03:51;1.23;;;0.60;;
10063;SDS011;5071;52.360;13.134;2022-07-15T17:08:54;1.70;;;0.77;;
10063;SDS011;5071;52.360;13.134;2022-07-15T17:13:56;4.87;;;0.77;;
10063;SDS011;5071;52.360;13.134;2022-07-15T17:18:59;3.67;;;0.60;;
10063;SDS011;5071;52.360;13.134;2022-07-15T17:24:02;1.77;;;0.80;;
10063;SDS011;5071;52.360;13.134;2022-07-15T17:29:06;1.90;;;0.57;;
10063;SDS011;5071;52.360;13.134;2022-07-15T17:34:09;0.87;;;0.40;;
10063;SDS011;5071;52.360;13.134;2022-07-15T17:39:14;4.33;;;0.70;;
10063;SDS011;5071;52.360;13.134;2022-07-15T17:44:18;0.87;;;0.80;;
10063;SDS011;5071;52.360;13.134;2022-07-15T17:49:20;0.60;;;0.60;;
10063;SDS011;5071;52.360;13.134;2022-07-15T17:54:24;1.27;;;0.33;;
10063;SDS011;5071;52.360;13.134;2022-07-15T17:59:26;0.87;;;0.60;;
10063;SDS011;5071;52.360;13.134;2022-07-15T18:04:29;0.93;;;0.60;;
10063;SDS011;5071;52.360;13.134;2022-07-15T18:09:32;0.90;;;0.57;;
10063;SDS011;5071;52.360;13.134;2022-07-15T18:14:34;1.10;;;1.00;;
10063;SDS011;5071;52.360;13.134;2022-07-15T18:19:36;0.60;;;0.50;;
10063;SDS011;5071;52.360;13.134;2022-07-15T18:24:39;1.67;;;0.70;;
10063;SDS011;5071;52.360;13.134;2022-07-15T18:29:41;1.67;;;0.57;;
10063;SDS011;5071;52.360;13.134;2022-07-15T18:34:43;1.40;;;0.80;;
10063;SDS011;5071;52.360;13.134;2022-07-15T18:39:46;1.60;;;0.50;;
10063;SDS011;5071;52.360;13.134;2022-07-15T18:44:49;2.10;;;0.50;;
10063;SDS011;5071;52.360;13.134;2022-07-15T18:49:51;3.93;;;0.47;;
10063;SDS011;5071;52.360;13.134;2022-07-15T18:54:54;1.73;;;0.60;;
10063;SDS011;5071;52.360;13.134;2022-07-15T18:59:56;1.87;;;0.60;;
10063;SDS011;5071;52.360;13.134;2022-07-15T19:04:58;2.83;;;0.60;;
10063;SDS011;5071;52.360;13.134;2022-07-15T19:10:02;0.30;;;0.30;;
10063;SDS011;5071;52.360;13.134;2022-07-15T19:15:04;0.60;;;0.30;;
10063;SDS011;5071;52.360;13.134;2022-07-15T19:20:07;1.77;;;0.40;;
10063;SDS011;5071;52.360;13.134;2022-07-15T19:25:11;0.50;;;0.40;;
10063;SDS011;5071;52.360;13.134;2022-07-15T19:30:13;0.40;;;0.40;;
10063;SDS011;5071;52.360;13.134;2022-07-15T19:35:15;1.23;;;0.40;;
10063;SDS011;5071;52.360;13.134;2022-07-15T19:40:18;0.37;;;0.23;;
10063;SDS011;5071;52.360;13.134;2022-07-15T19:45:20;0.47;;;0.30;;
10063;SDS011;5071;52.360;13.134;2022-07-15T19:50:22;1.43;;;0.30;;
10063;SDS011;5071;52.360;13.134;2022-07-15T19:55:25;0.93;;;0.40;;
10063;SDS011;5071;52.360;13.134;2022-07-15T20:00:28;0.37;;;0.27;;
10063;SDS011;5071;52.360;13.134;2022-07-15T20:05:31;0.83;;;0.40;;
10063;SDS011;5071;52.360;13.134;2022-07-15T20:10:35;1.40;;;0.30;;
10063;SDS011;5071;52.360;13.134;2022-07-15T20:15:37;1.77;;;0.40;;
10063;SDS011;5071;52.360;13.134;2022-07-15T20:20:39;0.40;;;0.30;;
10063;SDS011;5071;52.360;13.134;2022-07-15T20:25:43;0.80;;;0.40;;
10063;SDS011;5071;52.360;13.134;2022-07-15T20:30:46;1.00;;;0.40;;
10063;SDS011;5071;52.360;13.134;2022-07-15T20:35:48;1.40;;;0.50;;
10063;SDS011;5071;52.360;13.134;2022-07-15T20:40:52;0.47;;;0.47;;
10063;SDS011;5071;52.360;13.134;2022-07-15T20:45:54;0.87;;;0.70;;
10063;SDS011;5071;52.360;13.134;2022-07-15T20:50:57;3.13;;;0.43;;
10063;SDS011;5071;52.360;13.134;2022-07-15T20:56:00;1.90;;;0.50;;
10063;SDS011;5071;52.360;13.134;2022-07-15T21:01:03;2.17;;;0.40;;
10063;SDS011;5071;52.360;13.134;2022-07-15T21:06:06;0.40;;;0.30;;
10063;SDS011;5071;52.360;13.134;2022-07-15T21:11:09;1.33;;;0.80;;
10063;SDS011;5071;52.360;13.134;2022-07-15T21:16:11;1.87;;;0.60;;
10063;SDS011;5071;52.360;13.134;2022-07-15T21:21:13;0.60;;;0.40;;
10063;SDS011;5071;52.360;13.134;2022-07-15T21:26:17;1.83;;;0.50;;
10063;SDS011;5071;52.360;13.134;2022-07-15T21:31:19;1.33;;;0.40;;
10063;SDS011;5071;52.360;13.134;2022-07-15T21:36:21;1.20;;;0.47;;
10063;SDS011;5071;52.360;13.134;2022-07-15T21:41:25;0.90;;;0.50;;
10063;SDS011;5071;52.360;13.134;2022-07-15T21:46:27;3.10;;;0.50;;
10063;SDS011;5071;52.360;13.134;2022-07-15T21:51:29;0.73;;;0.37;;
10063;SDS011;5071;52.360;13.134;2022-07-15T21:56:32;0.37;;;0.37;;
10063;SDS011;5071;52.360;13.134;2022-07-15T22:01:35;0.57;;;0.40;;
10063;SDS011;5071;52.360;13.134;2022-07-15T22:06:37;1.23;;;0.30;;
10063;SDS011;5071;52.360;13.134;2022-07-15T22:11:42;0.40;;;0.23;;
10063;SDS011;5071;52.360;13.134;2022-07-15T22:16:44;0.37;;;0.37;;
10063;SDS011;5071;52.360;13.134;2022-07-15T22:21:46;0.50;;;0.50;;
10063;SDS011;5071;52.360;13.134;2022-07-15T22:26:50;1.67;;;0.60;;
10063;SDS011;5071;52.360;13.134;2022-07-15T22:31:52;2.33;;;0.50;;
10063;SDS011;5071;52.360;13.134;2022-07-15T22:36:55;1.10;;;0.40;;
10063;SDS011;5071;52.360;13.134;2022-07-15T22:41:59;0.73;;;0.30;;
10063;SDS011;5071;52.360;13.134;2022-07-15T22:47:02;0.83;;;0.40;;
10063;SDS011;5071;52.360;13.134;2022-07-15T22:52:05;1.40;;;0.47;;
10063;SDS011;5071;52.360;13.134;2022-07-15T22:57:08;0.63;;;0.33;;
10063;SDS011;5071;52.360;13.134;2022-07-15T23:02:10;0.60;;;0.50;;
10063;SDS011;5071;52.360;13.134;2022-07-15T23:07:12;1.27;;;0.50;;
10063;SDS011;5071;52.360;13.134;2022-07-15T23:12:16;1.60;;;0.30;;
10063;SDS011;5071;52.360;13.134;2022-07-15T23:17:18;0.27;;;0.17;;
10063;SDS011;5071;52.360;13.134;2022-07-15T23:22:20;1.80;;;0.33;;
10063;SDS011;5071;52.360;13.134;2022-07-15T23:27:24;1.23;;;0.43;;
10063;SDS011;5071;52.360;13.134;2022-07-15T23:32:26;0.33;;;0.30;;
10063;SDS011;5071;52.360;13.134;2022-07-15T23:37:34;0.73;;;0.40;;
10063;SDS011;5071;52.360;13.134;2022-07-15T23:42:37;0.30;;;0.30;;
10063;SDS011;5071;52.360;13.134;2022-07-15T23:47:39;0.40;;;0.30;;
10063;SDS011;5071;52.360;13.134;2022-07-15T23:52:41;0.40;;;0.27;;
10063;SDS011;5071;52.360;13.134;2022-07-15T23:57:45;1.50;;;0.40;;
